Agana Heights, GU

12:16 PM ChST on September 22, 2014 (GMT +1000)
Maite | Change Station
CLOSE
Current Station
Personal Weather Station
Location: Maite, GU
Elevation: 140 ft
Nearby Weather Stations

Elev 140 ft 13.48 °N, 144.76 °E | Updated 20 seconds ago

Mostly Cloudy
Mostly Cloudy
86.6 °F
Feels Like 103 °F
N
11.0
Wind Variable Wind from NNW
Gusts 13.0 mph

Today
High -- | Low -- °F
--% Chance of Precip.
Yesterday
High -- | Low -- °F
Precip. -- in
6:10 AM 6:17 PM
Waning Crescent, 4% visible
Pressure 29.76 in
Visibility 10.0 miles
Clouds Scattered Clouds 2700 ft
Mostly Cloudy 4000 ft
Heat Index 103 °F
Dew Point 81 °F
Humidity 83%
Rainfall 0.00 in
Snow Depth Not available.
UV 14.3 out of 12
Pollen Not available.
Air Quality Not available.
Flu Activity Not available.
METAR PGUM 220154Z 04009KT 10SM SCT027 BKN040 32/24 A2978 RMK AO2 SLP076 T03170239

More Conditions Fewer Conditions

Pressure 29.76 in
Visibility 10.0 miles
Clouds Scattered Clouds 2700 ft
Mostly Cloudy 4000 ft
Heat Index 103 °F
Dew Point 81 °F
Humidity 83%
Rainfall 0.00 in
Snow Depth Not available.
UV 14.3 out of 12
Pollen Not available.
Air Quality Not available.
Flu Activity Not available.
METAR PGUM 220154Z 04009KT 10SM SCT027 BKN040 32/24 A2978 RMK AO2 SLP076 T03170239

More Conditions Fewer Conditions

10-Day Weather Forecast

Almanac

Astronomy

Sep. 22, 2014 Rise Set
Actual Time 6:10 AM ChST 6:17 PM ChST
Civil Twilight 5:48 AM ChST 6:38 PM ChST
Nautical Twilight 5:24 AM ChST 7:03 PM ChST
Astronomical Twilight 4:59 AM ChST 7:28 PM ChST
Moon 4:19 AM ChST 4:52 PM ChST
Length of Visible Light 12h 49m
Length of Day
12h 07m
Tomorrow will be 0m 45s shorter.
Waning Crescent, 4% of the Moon is Illuminated
Sep 21
Waning Crescent
Sep 24
New
Oct 1
First Quarter
Oct 8
Full
Oct 15
Last Quarter

Community

WunderPhotos

Upload Photos

1,755,347 photos uploaded!

WunderBlogs® & News

Nearby

Snow Depth

Station Depth Elevation
No new snow has been reported.

Earthquake Activity

City Distance Mag. Time & Date
No recent earthquake activity has been reported nearby.
Minimum magnitude displayed is 2.5.

Coastal Water Temperatures

Place Temperature
No Stations Reporting

Nearby Weather Stations